Ana Sayfa
METAR-TAF:

METAR-TAF

Havaalanları :

Latrobe, Pensilvanya, Amerika Birleşik Devletleri

Enlem: 40-17N, Boylam: 079-24W, yükseklik: 361 m

Güncel hava durumu gözlemi

Rapor saat 16:47 UTC de 33 dakika önce yapıldı.
Rüzgar güneybatıdan 8 kt
Sıcaklık -1°C
Nem 54%
Basınç 1023 hPa
Görüş mesafesi: 16.1 km
Açık gökyüzü

METAR: KLBE 071647Z 23008KT 10SM CLR M01/M09 A3021

Saat: 12:20 (17:20 UTC)

Tahmin

Rapor saat 11:20 UTC de 6 saat ve 0 dakika önce yapıldı.
Ayın 07'si saat 12 UTC'den ayın 08'si saat 12 UTC'ye kadar geçerli Tahmin
Rüzgar batıdan 7 kt
Görüş mesafesi: 10 km
3500 ft yükseklikte parçalı bulutlu
Ayın 07'si saat 1500 UTC'den
Rüzgar batı/güneybatıdan 7 kt
Görüş mesafesi: 10 km
5000 ft yükseklikte parçalı bulutlu
Ayın 08'si saat 0300 UTC'den
Rüzgar kuzeydan kt
Görüş mesafesi: 10 km
10000 ft yükseklikte çok bulutlu

TAF: KLBE 071120Z 0712/0812 26007KT P6SM SCT035 FM071500 25007KT P6SM SCT050 FM080300 00000KT P6SM OVC100

4.000'den fazla havaalanı için hava durumu gözlemleri ve tahminleri (METAR ve TAF raporları).

Kullanılabilir istasyonlar harita üzerinde sarı ve kırmızı noktalarla gösterilir.

İstasyonun adını görmek için fareyi noktanın üzerinde gezdirin.

Sonrasında hava gözlem ve tahminlerini görmek için tıklayın.

Haritayı değiştirmek için: yaklaştırmak için siyah artı işaretli yeşil düğmeye ve uzaklaştırmak için de eksi işaretli düğmeye hızla tıklayın; bitişik haritalar için yeşil okları kullanın.


METAR-TAF: